createdAt,value
2017-12-04T00:00:56.681Z,99.99
2017-12-04T00:01:56.661Z,99.99
2017-12-04T00:02:56.649Z,99.99
2017-12-04T00:03:56.623Z,99.99
2017-12-04T00:04:56.600Z,99.99
2017-12-04T00:05:56.581Z,99.99
2017-12-04T00:06:56.552Z,99.99
2017-12-04T00:07:56.535Z,99.99
2017-12-04T00:08:56.513Z,99.99
2017-12-04T00:09:56.494Z,99.99
2017-12-04T00:10:56.472Z,99.99
2017-12-04T00:11:56.459Z,99.99
2017-12-04T00:12:56.434Z,99.99
2017-12-04T00:13:56.422Z,99.99
2017-12-04T00:14:56.386Z,99.99
2017-12-04T00:15:56.366Z,99.99
2017-12-04T00:16:56.354Z,99.99
2017-12-04T00:17:56.325Z,99.99
2017-12-04T00:18:56.301Z,99.99
2017-12-04T00:19:56.282Z,99.99
2017-12-04T00:20:56.264Z,99.99
2017-12-04T00:21:56.245Z,99.99
2017-12-04T00:22:56.234Z,99.99
2017-12-04T00:23:56.202Z,99.99
2017-12-04T00:24:56.192Z,99.99
2017-12-04T00:25:56.458Z,99.99
2017-12-04T00:26:56.143Z,99.99
2017-12-04T00:27:56.112Z,99.99
2017-12-04T00:28:56.094Z,99.99
2017-12-04T00:29:56.069Z,99.99
2017-12-04T00:30:56.052Z,99.99
2017-12-04T00:31:56.027Z,99.99
2017-12-04T00:32:56.015Z,99.99
2017-12-04T00:33:55.985Z,99.99
2017-12-04T00:34:55.973Z,99.99
2017-12-04T00:35:55.944Z,99.99
2017-12-04T00:36:55.923Z,99.99
2017-12-04T00:37:55.900Z,99.99
2017-12-04T00:38:55.883Z,99.99
2017-12-04T00:39:55.863Z,99.99
2017-12-04T00:40:55.836Z,99.99
2017-12-04T00:41:55.814Z,99.99
2017-12-04T00:42:55.793Z,99.99
2017-12-04T00:43:55.774Z,99.99
2017-12-04T00:44:55.755Z,99.99
2017-12-04T00:45:55.729Z,99.99
2017-12-04T00:46:55.717Z,99.99
2017-12-04T00:47:55.689Z,99.99
2017-12-04T00:48:55.665Z,99.99
2017-12-04T00:49:55.654Z,99.99
2017-12-04T00:50:55.625Z,99.99
2017-12-04T00:51:55.604Z,99.99
2017-12-04T00:52:55.585Z,99.99
2017-12-04T00:53:55.563Z,99.99
2017-12-04T00:54:55.538Z,99.99
2017-12-04T00:55:55.521Z,99.99
2017-12-04T00:56:55.546Z,99.97
2017-12-04T00:57:55.476Z,99.99
2017-12-04T00:58:55.461Z,99.99
2017-12-04T00:59:55.438Z,99.99
2017-12-04T01:00:55.425Z,99.99
2017-12-04T01:01:55.391Z,99.99
2017-12-04T01:02:55.372Z,99.99
2017-12-04T01:03:55.350Z,99.97
2017-12-04T01:04:55.366Z,99.99
2017-12-04T01:05:55.310Z,99.99
2017-12-04T01:06:55.293Z,99.97
2017-12-04T01:07:55.265Z,99.99
2017-12-04T01:08:55.298Z,99.99
2017-12-04T01:09:55.228Z,99.99
2017-12-04T01:10:55.204Z,99.99
2017-12-04T01:11:55.193Z,99.99
2017-12-04T01:12:55.164Z,99.99
2017-12-04T01:13:55.144Z,99.99
2017-12-04T01:14:55.151Z,99.99
2017-12-04T01:15:55.101Z,99.99
2017-12-04T01:16:55.143Z,99.99
2017-12-04T01:17:55.053Z,99.99
2017-12-04T01:18:55.035Z,99.99
2017-12-04T01:19:55.015Z,99.99
2017-12-04T01:20:54.995Z,99.99
2017-12-04T01:21:54.972Z,99.99
2017-12-04T01:22:54.955Z,99.99
2017-12-04T01:23:54.932Z,99.99
2017-12-04T01:24:54.910Z,99.99
2017-12-04T01:25:54.883Z,99.99
2017-12-04T01:26:54.961Z,99.99
2017-12-04T01:27:54.845Z,99.99
2017-12-04T01:28:54.915Z,99.99
2017-12-04T01:29:54.799Z,99.99
2017-12-04T01:30:54.784Z,99.99
2017-12-04T01:31:54.763Z,99.99
2017-12-04T01:32:54.738Z,99.99
2017-12-04T01:33:54.721Z,99.99
2017-12-04T01:34:54.704Z,99.99
2017-12-04T01:35:54.684Z,99.99
2017-12-04T01:36:54.745Z,99.99
2017-12-04T01:37:54.636Z,99.99
2017-12-04T01:38:54.664Z,99.99
2017-12-04T01:39:54.591Z,99.99
2017-12-04T01:40:54.581Z,99.99
2017-12-04T01:41:54.558Z,99.99
2017-12-04T01:42:54.529Z,99.99
2017-12-04T01:43:54.515Z,99.99
2017-12-04T01:44:54.493Z,99.99
2017-12-04T01:45:54.468Z,99.99
2017-12-04T01:46:54.443Z,99.99
2017-12-04T01:47:54.424Z,99.99
2017-12-04T01:48:54.403Z,99.99
2017-12-04T01:49:54.381Z,99.99
2017-12-04T01:50:54.363Z,99.99
2017-12-04T01:51:54.343Z,99.99
2017-12-04T01:52:54.320Z,99.99
2017-12-04T01:53:54.299Z,99.99
2017-12-04T01:54:54.280Z,99.99
2017-12-04T01:55:54.265Z,99.99
2017-12-04T01:56:54.242Z,99.99
2017-12-04T01:57:54.223Z,99.99
2017-12-04T01:58:54.206Z,99.99
2017-12-04T01:59:54.178Z,99.99
2017-12-04T02:00:54.156Z,99.99
2017-12-04T02:01:54.133Z,99.99
2017-12-04T02:02:54.114Z,99.99
2017-12-04T02:03:54.093Z,99.99
2017-12-04T02:04:54.074Z,99.99
2017-12-04T02:05:54.052Z,99.99
2017-12-04T02:06:54.035Z,99.99
2017-12-04T02:07:54.026Z,99.97
2017-12-04T02:08:53.989Z,99.97
2017-12-04T02:09:53.972Z,99.99
2017-12-04T02:10:53.950Z,99.99
2017-12-04T02:11:53.930Z,99.99
2017-12-04T02:12:53.915Z,99.99
2017-12-04T02:13:53.889Z,99.99
2017-12-04T02:14:53.866Z,99.99
2017-12-04T02:15:53.851Z,99.99
2017-12-04T02:16:53.825Z,99.99
2017-12-04T02:17:53.803Z,99.97
2017-12-04T02:18:53.784Z,99.99
2017-12-04T02:19:53.766Z,99.99
2017-12-04T02:20:53.744Z,99.99
2017-12-04T02:21:53.723Z,99.99
2017-12-04T02:22:53.704Z,99.99
2017-12-04T02:23:53.684Z,99.99
2017-12-04T02:24:53.659Z,99.99
2017-12-04T02:25:53.642Z,99.99
2017-12-04T02:26:53.622Z,99.99
2017-12-04T02:27:53.604Z,99.99
2017-12-04T02:28:53.582Z,99.99
2017-12-04T02:29:53.561Z,99.99
2017-12-04T02:30:53.536Z,99.99
2017-12-04T02:31:53.521Z,99.99
2017-12-04T02:32:53.494Z,99.99
2017-12-04T02:33:53.473Z,99.99
2017-12-04T02:34:53.452Z,99.99
2017-12-04T02:35:53.432Z,99.99
2017-12-04T02:36:53.414Z,99.99
2017-12-04T02:37:53.392Z,99.99
2017-12-04T02:38:53.372Z,99.58
2017-12-04T02:39:53.349Z,99.87
2017-12-04T02:40:53.330Z,99.58
2017-12-04T02:41:53.307Z,99.68
2017-12-04T02:42:53.293Z,99.58
2017-12-04T02:43:53.269Z,99.58
2017-12-04T02:44:53.249Z,99.77
2017-12-04T02:45:53.227Z,99.77
2017-12-04T02:46:53.209Z,99.97
2017-12-04T02:47:53.190Z,99.68
2017-12-04T02:48:53.163Z,99.21
2017-12-04T02:49:53.145Z,99.49
2017-12-04T02:50:53.123Z,99.49
2017-12-04T02:51:53.100Z,99.21
2017-12-04T02:52:53.080Z,99.87
2017-12-04T02:53:53.061Z,99.87
2017-12-04T02:54:53.044Z,99.87
2017-12-04T02:55:53.025Z,99.97
2017-12-04T02:56:52.997Z,99.58
2017-12-04T02:57:52.974Z,99.97
2017-12-04T02:58:52.959Z,99.99
2017-12-04T02:59:52.939Z,99.99
2017-12-04T03:00:52.914Z,99.77
2017-12-04T03:01:52.896Z,99.77
2017-12-04T03:02:52.873Z,99.77
2017-12-04T03:03:52.858Z,99.97
2017-12-04T03:04:52.833Z,99.30
2017-12-04T03:05:52.817Z,99.58
2017-12-04T03:06:52.798Z,99.11
2017-12-04T03:07:52.769Z,99.58
2017-12-04T03:08:52.754Z,99.49
2017-12-04T03:09:52.731Z,99.30
2017-12-04T03:10:52.705Z,99.87
2017-12-04T03:11:52.692Z,99.21
2017-12-04T03:12:52.666Z,99.21
2017-12-04T03:13:52.648Z,99.02
2017-12-04T03:14:52.625Z,99.21
2017-12-04T03:15:52.606Z,99.77
2017-12-04T03:16:52.580Z,99.58
2017-12-04T03:17:52.564Z,99.21
2017-12-04T03:18:52.548Z,99.68
2017-12-04T03:19:52.516Z,99.58
2017-12-04T03:20:52.501Z,99.68
2017-12-04T03:21:52.474Z,99.68
2017-12-04T03:22:52.463Z,99.58
2017-12-04T03:23:52.436Z,99.58
2017-12-04T03:24:52.413Z,99.07
2017-12-04T03:25:52.390Z,99.02
2017-12-04T03:26:52.374Z,99.21
2017-12-04T03:27:52.362Z,99.58
2017-12-04T03:28:52.335Z,99.11
2017-12-04T03:29:52.313Z,99.26
2017-12-04T03:30:52.293Z,99.11
2017-12-04T03:31:52.269Z,99.40
2017-12-04T03:32:52.249Z,99.77
2017-12-04T03:33:52.226Z,99.73
2017-12-04T03:34:52.204Z,99.64
2017-12-04T03:35:52.185Z,99.35
2017-12-04T03:36:52.164Z,99.21
2017-12-04T03:37:52.145Z,99.26
2017-12-04T03:38:52.122Z,99.99
2017-12-04T03:39:52.109Z,99.58
2017-12-04T03:40:52.081Z,99.68
2017-12-04T03:41:52.059Z,99.77
2017-12-04T03:42:52.043Z,99.68
2017-12-04T03:43:52.075Z,99.77
2017-12-04T03:44:51.998Z,99.68
2017-12-04T03:45:51.978Z,99.92
2017-12-04T03:46:51.953Z,99.68
2017-12-04T03:47:51.933Z,99.97
2017-12-04T03:48:51.914Z,99.97
2017-12-04T03:49:51.894Z,99.99
2017-12-04T03:50:51.876Z,99.97
2017-12-04T03:51:51.853Z,99.92
2017-12-04T03:52:51.842Z,99.99
2017-12-04T03:53:51.818Z,99.77
2017-12-04T03:54:51.797Z,99.87
2017-12-04T03:55:51.773Z,99.68
2017-12-04T03:56:51.746Z,99.77
2017-12-04T03:57:51.729Z,99.58
2017-12-04T03:58:51.707Z,99.58
2017-12-04T03:59:51.694Z,99.99
2017-12-04T04:00:51.665Z,99.99
2017-12-04T04:01:51.645Z,99.99
2017-12-04T04:02:51.624Z,99.99
2017-12-04T04:03:51.601Z,99.99
2017-12-04T04:04:51.585Z,99.99
2017-12-04T04:05:51.565Z,99.99
2017-12-04T04:06:51.541Z,99.99
2017-12-04T04:07:51.522Z,99.99
2017-12-04T04:08:51.498Z,99.99
2017-12-04T04:09:51.476Z,99.97
2017-12-04T04:10:51.459Z,99.99
2017-12-04T04:11:51.444Z,99.99
2017-12-04T04:12:51.424Z,99.99
2017-12-04T04:13:51.396Z,99.99
2017-12-04T04:14:51.374Z,99.99
2017-12-04T04:15:51.355Z,99.99
2017-12-04T04:16:51.335Z,99.99
2017-12-04T04:17:51.312Z,99.99
2017-12-04T04:18:51.291Z,99.99
2017-12-04T04:19:51.270Z,99.99
2017-12-04T04:20:51.249Z,99.99
2017-12-04T04:21:51.232Z,99.99
2017-12-04T04:22:51.210Z,99.99
2017-12-04T04:23:51.193Z,99.99
2017-12-04T04:24:51.166Z,99.99
2017-12-04T04:25:51.153Z,99.99
2017-12-04T04:26:51.131Z,99.99
2017-12-04T04:27:51.113Z,99.99
2017-12-04T04:28:51.085Z,99.99
2017-12-04T04:29:51.064Z,99.99
2017-12-04T04:30:51.044Z,99.99
2017-12-04T04:31:51.024Z,99.99
2017-12-04T04:32:51.011Z,99.99
2017-12-04T04:33:50.985Z,99.99
2017-12-04T04:34:50.964Z,99.99
2017-12-04T04:35:50.945Z,99.99
2017-12-04T04:36:50.924Z,99.99
2017-12-04T04:37:50.903Z,99.44
2017-12-04T04:38:50.884Z,99.73
2017-12-04T04:39:50.860Z,99.92
2017-12-04T04:40:50.838Z,99.83
2017-12-04T04:41:50.816Z,99.83
2017-12-04T04:42:50.799Z,99.99
2017-12-04T04:43:50.783Z,99.83
2017-12-04T04:44:50.755Z,99.99
2017-12-04T04:45:50.734Z,99.83
2017-12-04T04:46:50.713Z,99.99
2017-12-04T04:47:50.693Z,99.97
2017-12-04T04:48:50.671Z,99.99
2017-12-04T04:49:50.654Z,99.99
2017-12-04T04:50:50.633Z,99.99
2017-12-04T04:51:50.619Z,99.99
2017-12-04T04:52:50.604Z,99.99
2017-12-04T04:53:50.570Z,99.99
2017-12-04T04:54:50.554Z,99.99
2017-12-04T04:55:50.530Z,99.99
2017-12-04T04:56:50.510Z,99.99
2017-12-04T04:57:50.497Z,99.83
2017-12-04T04:58:50.469Z,99.54
2017-12-04T04:59:50.451Z,99.64
2017-12-04T05:00:50.425Z,99.64
2017-12-04T05:01:50.402Z,99.73
2017-12-04T05:02:50.386Z,99.26
2017-12-04T05:03:50.366Z,99.16
2017-12-04T05:04:50.346Z,99.07
2017-12-04T05:05:50.323Z,99.26
2017-12-04T05:06:50.305Z,99.07
2017-12-04T05:07:50.283Z,99.44
2017-12-04T05:08:50.262Z,99.83
2017-12-04T05:09:50.245Z,99.44
2017-12-04T05:10:50.226Z,99.26
2017-12-04T05:11:50.200Z,99.64
2017-12-04T05:12:50.185Z,99.26
2017-12-04T05:13:50.167Z,99.44
2017-12-04T05:14:50.135Z,99.44
2017-12-04T05:15:50.116Z,99.07
2017-12-04T05:16:50.094Z,98.79
2017-12-04T05:17:50.071Z,98.88
2017-12-04T05:18:50.054Z,98.88
2017-12-04T05:19:50.034Z,98.88
2017-12-04T05:20:50.010Z,98.88
2017-12-04T05:21:49.994Z,99.07
2017-12-04T05:22:49.972Z,98.79
2017-12-04T05:23:49.998Z,99.07
2017-12-04T05:24:49.935Z,98.69
2017-12-04T05:25:50.010Z,98.79
2017-12-04T05:26:49.891Z,98.88
2017-12-04T05:27:49.914Z,99.44
2017-12-04T05:28:49.846Z,99.64
2017-12-04T05:29:49.873Z,99.64
2017-12-04T05:30:49.806Z,99.16
2017-12-04T05:31:49.785Z,98.79
2017-12-04T05:32:49.761Z,99.07
2017-12-04T05:33:49.744Z,99.07
2017-12-04T05:34:49.784Z,98.88
2017-12-04T05:35:49.803Z,98.97
2017-12-04T05:36:49.677Z,99.44
2017-12-04T05:37:49.715Z,99.07
2017-12-04T05:38:49.644Z,98.88
2017-12-04T05:39:49.679Z,99.16
2017-12-04T05:40:49.598Z,98.79
2017-12-04T05:41:49.674Z,99.07
2017-12-04T05:42:49.554Z,99.16
2017-12-04T05:43:49.585Z,99.07
2017-12-04T05:44:49.515Z,98.97
2017-12-04T05:45:49.492Z,98.59
2017-12-04T05:46:49.472Z,98.69
2017-12-04T05:47:49.504Z,98.59
2017-12-04T05:48:49.433Z,98.88
2017-12-04T05:49:49.415Z,98.79
2017-12-04T05:50:49.392Z,99.07
2017-12-04T05:51:49.373Z,98.88
2017-12-04T05:52:49.354Z,99.07
2017-12-04T05:53:49.333Z,99.07
2017-12-04T05:54:49.316Z,98.79
2017-12-04T05:55:49.505Z,98.97
2017-12-04T05:56:49.275Z,98.88
2017-12-04T05:57:49.352Z,98.88
2017-12-04T05:58:49.236Z,98.50
2017-12-04T05:59:49.243Z,98.40
2017-12-04T06:00:49.184Z,98.59
2017-12-04T06:01:49.175Z,99.07
2017-12-04T06:02:49.152Z,98.21
2017-12-04T06:03:49.134Z,98.31
2017-12-04T06:04:49.117Z,98.31
2017-12-04T06:05:49.103Z,98.02
2017-12-04T06:06:49.067Z,97.83
2017-12-04T06:07:49.054Z,98.21
2017-12-04T06:08:49.026Z,98.40
2017-12-04T06:09:49.008Z,98.40
2017-12-04T06:10:48.987Z,98.69
2017-12-04T06:11:49.031Z,98.31
2017-12-04T06:12:48.955Z,98.50
2017-12-04T06:13:48.928Z,98.21
2017-12-04T06:14:48.907Z,98.02
2017-12-04T06:15:48.892Z,98.21
2017-12-04T06:16:48.868Z,98.69
2017-12-04T06:17:48.849Z,98.12
2017-12-04T06:18:48.829Z,98.40
2017-12-04T06:19:48.808Z,98.21
2017-12-04T06:20:48.806Z,98.31
2017-12-04T06:21:48.767Z,98.31
2017-12-04T06:22:48.745Z,98.31
2017-12-04T06:23:48.740Z,98.40
2017-12-04T06:24:48.709Z,98.40
2017-12-04T06:25:48.689Z,98.21
2017-12-04T06:26:48.666Z,97.83
2017-12-04T06:27:48.641Z,97.83
2017-12-04T06:28:48.628Z,98.21
2017-12-04T06:29:48.604Z,98.12
2017-12-04T06:30:48.588Z,98.02
2017-12-04T06:31:48.560Z,98.31
2017-12-04T06:32:48.536Z,98.31
2017-12-04T06:33:48.517Z,98.69
2017-12-04T06:34:48.498Z,98.40
2017-12-04T06:35:48.476Z,98.50
2017-12-04T06:36:48.477Z,98.12
2017-12-04T06:37:48.433Z,98.59
2017-12-04T06:38:48.414Z,98.40
2017-12-04T06:39:48.402Z,98.40
2017-12-04T06:40:48.369Z,98.31
2017-12-04T06:41:48.353Z,98.31
2017-12-04T06:42:48.329Z,98.31
2017-12-04T06:43:48.305Z,98.21
2017-12-04T06:44:48.283Z,98.21
2017-12-04T06:45:48.269Z,98.21
2017-12-04T06:46:48.243Z,98.40
2017-12-04T06:47:48.224Z,98.69
2017-12-04T06:48:48.204Z,98.40
2017-12-04T06:49:48.183Z,98.97
2017-12-04T06:50:48.163Z,99.16
2017-12-04T06:51:48.140Z,98.88
2017-12-04T06:52:48.125Z,97.92
2017-12-04T06:53:48.099Z,98.21
2017-12-04T06:54:48.083Z,98.21
2017-12-04T06:55:48.062Z,98.21
2017-12-04T06:56:48.038Z,98.21
2017-12-04T06:57:48.022Z,98.21
2017-12-04T06:58:48.005Z,98.59
2017-12-04T06:59:47.979Z,98.64
2017-12-04T07:00:47.961Z,98.21
2017-12-04T07:01:47.940Z,98.26
2017-12-04T07:02:47.926Z,98.31
2017-12-04T07:03:47.902Z,98.50
2017-12-04T07:04:47.876Z,98.59
2017-12-04T07:05:47.859Z,98.21
2017-12-04T07:06:47.841Z,98.50
2017-12-04T07:07:47.815Z,98.36
2017-12-04T07:08:47.802Z,98.50
2017-12-04T07:09:47.774Z,98.45
2017-12-04T07:10:47.761Z,98.40
2017-12-04T07:11:47.735Z,98.40
2017-12-04T07:12:47.715Z,98.21
2017-12-04T07:13:47.693Z,98.26
2017-12-04T07:14:47.675Z,98.21
2017-12-04T07:15:47.651Z,98.17
2017-12-04T07:16:47.632Z,98.31
2017-12-04T07:17:47.615Z,98.31
2017-12-04T07:18:47.591Z,98.50
2017-12-04T07:19:47.588Z,98.31
2017-12-04T07:20:47.550Z,98.45
2017-12-04T07:21:47.532Z,98.17
2017-12-04T07:22:47.513Z,98.26
2017-12-04T07:23:47.496Z,98.40
2017-12-04T07:24:47.484Z,98.64
2017-12-04T07:25:47.454Z,98.21
2017-12-04T07:26:47.430Z,98.12
2017-12-04T07:27:47.420Z,98.40
2017-12-04T07:28:47.391Z,98.36
2017-12-04T07:29:47.375Z,98.36
2017-12-04T07:30:47.350Z,98.36
2017-12-04T07:31:47.332Z,98.36
2017-12-04T07:32:47.311Z,98.21
2017-12-04T07:33:47.291Z,98.45
2017-12-04T07:34:47.269Z,98.26
2017-12-04T07:35:47.255Z,98.26
2017-12-04T07:36:47.233Z,98.26
2017-12-04T07:37:47.217Z,99.11
2017-12-04T07:38:47.186Z,98.74
2017-12-04T07:39:47.175Z,98.36
2017-12-04T07:40:47.147Z,98.36
2017-12-04T07:41:47.129Z,98.36
2017-12-04T07:42:47.115Z,98.45
2017-12-04T07:43:47.096Z,99.11
2017-12-04T07:44:47.065Z,98.55
2017-12-04T07:45:47.052Z,98.36
2017-12-04T07:46:47.024Z,98.26
2017-12-04T07:47:47.015Z,98.36
2017-12-04T07:48:46.984Z,98.26
2017-12-04T07:49:46.960Z,98.55
2017-12-04T07:50:46.944Z,98.36
2017-12-04T07:51:46.925Z,97.60
2017-12-04T07:52:46.904Z,97.69
2017-12-04T07:53:46.880Z,97.60
2017-12-04T07:54:46.864Z,97.78
2017-12-04T07:55:46.845Z,97.78
2017-12-04T07:56:46.823Z,97.60
2017-12-04T07:57:46.808Z,97.69
2017-12-04T07:58:46.782Z,97.88
2017-12-04T07:59:46.765Z,98.07
2017-12-04T08:00:46.747Z,97.60
2017-12-04T08:01:46.720Z,97.78
2017-12-04T08:02:46.697Z,97.97
2017-12-04T08:03:46.679Z,97.69
2017-12-04T08:04:46.664Z,97.50
2017-12-04T08:05:46.638Z,97.88
2017-12-04T08:06:46.618Z,98.07
2017-12-04T08:07:46.598Z,97.78
2017-12-04T08:08:46.580Z,97.78
2017-12-04T08:09:46.558Z,97.69
2017-12-04T08:10:46.544Z,97.88
2017-12-04T08:11:46.518Z,97.60
2017-12-04T08:12:46.497Z,97.31
2017-12-04T08:13:46.474Z,97.50
2017-12-04T08:14:46.459Z,97.41
2017-12-04T08:15:46.433Z,97.69
2017-12-04T08:16:46.426Z,97.12
2017-12-04T08:17:46.406Z,97.22
2017-12-04T08:18:46.377Z,97.60
2017-12-04T08:19:46.361Z,97.41
2017-12-04T08:20:46.337Z,97.31
2017-12-04T08:21:46.324Z,97.41
2017-12-04T08:22:46.298Z,96.45
2017-12-04T08:23:46.276Z,96.65
2017-12-04T08:24:46.260Z,97.12
2017-12-04T08:25:46.234Z,97.22
2017-12-04T08:26:46.214Z,97.03
2017-12-04T08:27:46.200Z,96.55
2017-12-04T08:28:46.175Z,96.84
2017-12-04T08:29:46.154Z,96.84
2017-12-04T08:30:46.135Z,97.12
2017-12-04T08:31:46.116Z,97.31
2017-12-04T08:32:46.094Z,97.50
2017-12-04T08:33:46.073Z,96.93
2017-12-04T08:34:46.055Z,96.93
2017-12-04T08:35:46.034Z,97.12
2017-12-04T08:36:46.013Z,96.74
2017-12-04T08:37:46.007Z,97.12
2017-12-04T08:38:45.989Z,96.65
2017-12-04T08:39:45.954Z,96.74
2017-12-04T08:40:45.950Z,97.22
2017-12-04T08:41:45.913Z,96.74
2017-12-04T08:42:45.894Z,97.22
2017-12-04T08:43:45.875Z,96.55
2017-12-04T08:44:45.853Z,96.84
2017-12-04T08:45:45.835Z,96.74
2017-12-04T08:46:45.817Z,96.74
2017-12-04T08:47:45.795Z,96.84
2017-12-04T08:48:45.773Z,96.08
2017-12-04T08:49:45.764Z,96.17
2017-12-04T08:50:45.734Z,96.17
2017-12-04T08:51:45.714Z,96.36
2017-12-04T08:52:45.697Z,96.65
2017-12-04T08:53:45.677Z,96.36
2017-12-04T08:54:45.655Z,95.79
2017-12-04T08:55:45.634Z,96.26
2017-12-04T08:56:45.617Z,96.26
2017-12-04T08:57:45.596Z,95.41
2017-12-04T08:58:45.575Z,95.60
2017-12-04T08:59:45.554Z,95.41
2017-12-04T09:00:45.535Z,95.79
2017-12-04T09:01:45.520Z,95.98
2017-12-04T09:02:45.491Z,95.32
2017-12-04T09:03:45.475Z,95.41
2017-12-04T09:04:45.456Z,95.98
2017-12-04T09:05:45.444Z,95.41
2017-12-04T09:06:45.415Z,95.51
2017-12-04T09:07:45.404Z,95.70
2017-12-04T09:08:45.374Z,95.70
2017-12-04T09:09:45.367Z,95.70
2017-12-04T09:10:45.335Z,95.70
2017-12-04T09:11:45.315Z,95.22
2017-12-04T09:12:45.294Z,95.70
2017-12-04T09:13:45.275Z,95.89
2017-12-04T09:14:45.261Z,96.45
2017-12-04T09:15:45.234Z,97.12
2017-12-04T09:16:45.215Z,97.69
2017-12-04T09:17:45.193Z,97.50
2017-12-04T09:18:45.172Z,97.22
2017-12-04T09:19:45.156Z,97.31
2017-12-04T09:20:45.135Z,97.60
2017-12-04T09:21:45.116Z,97.60
2017-12-04T09:22:45.094Z,97.69
2017-12-04T09:23:45.088Z,98.45
2017-12-04T09:24:45.054Z,98.17
2017-12-04T09:25:45.035Z,98.45
2017-12-04T09:26:45.016Z,98.26
2017-12-04T09:27:44.995Z,99.11
2017-12-04T09:28:44.977Z,98.93
2017-12-04T09:29:44.958Z,99.11
2017-12-04T09:30:44.934Z,99.02
2017-12-04T09:31:44.917Z,99.30
2017-12-04T09:32:44.895Z,98.74
2017-12-04T09:33:44.875Z,99.50
2017-12-04T09:34:44.854Z,99.50
2017-12-04T09:35:44.833Z,99.30
2017-12-04T09:36:44.815Z,99.99
2017-12-04T09:37:44.799Z,99.50
2017-12-04T09:38:44.776Z,99.88
2017-12-04T09:39:44.754Z,99.59
2017-12-04T09:40:44.734Z,99.88
2017-12-04T09:41:44.714Z,99.97
2017-12-04T09:42:44.694Z,99.88
2017-12-04T09:43:44.675Z,99.88
2017-12-04T09:44:44.655Z,99.78
2017-12-04T09:45:44.634Z,99.88
2017-12-04T09:46:44.614Z,99.69
2017-12-04T09:47:44.605Z,99.99
2017-12-04T09:48:44.579Z,99.50
2017-12-04T09:49:44.562Z,99.99
2017-12-04T09:50:44.540Z,99.99
2017-12-04T09:51:44.518Z,99.99
2017-12-04T09:52:44.495Z,99.97
2017-12-04T09:53:44.482Z,99.59
2017-12-04T09:54:44.474Z,99.30
2017-12-04T09:55:44.444Z,99.30
2017-12-04T09:56:44.418Z,99.78
2017-12-04T09:57:44.405Z,99.69
2017-12-04T09:58:44.383Z,99.69
2017-12-04T09:59:44.367Z,99.69
2017-12-04T10:00:44.347Z,99.64
2017-12-04T10:01:44.322Z,99.99
2017-12-04T10:02:44.305Z,99.40
2017-12-04T10:03:44.283Z,99.99
2017-12-04T10:04:44.266Z,99.69
2017-12-04T10:05:44.255Z,99.93
2017-12-04T10:06:44.225Z,99.74
2017-12-04T10:07:44.202Z,99.16
2017-12-04T10:08:44.196Z,99.36
2017-12-04T10:09:44.164Z,99.55
2017-12-04T10:10:44.153Z,99.16
2017-12-04T10:11:44.126Z,99.45
2017-12-04T10:12:44.102Z,99.99
2017-12-04T10:13:44.085Z,99.64
2017-12-04T10:14:44.064Z,99.36
2017-12-04T10:15:44.045Z,99.64
2017-12-04T10:16:44.027Z,99.07
2017-12-04T10:17:44.011Z,99.36
2017-12-04T10:18:43.983Z,99.64
2017-12-04T10:19:43.965Z,99.88
2017-12-04T10:20:43.947Z,99.99
2017-12-04T10:21:43.931Z,99.99
2017-12-04T10:22:43.912Z,99.99
2017-12-04T10:23:43.890Z,99.84
2017-12-04T10:24:43.875Z,99.36
2017-12-04T10:25:43.854Z,99.84
2017-12-04T10:26:43.825Z,99.99
2017-12-04T10:27:43.811Z,99.36
2017-12-04T10:28:43.794Z,98.69
2017-12-04T10:29:43.784Z,99.16
2017-12-04T10:30:43.754Z,98.97
2017-12-04T10:31:43.739Z,98.22
2017-12-04T10:32:43.710Z,98.22
2017-12-04T10:33:43.712Z,98.22
2017-12-04T10:34:43.674Z,98.31
2017-12-04T10:35:43.652Z,98.50
2017-12-04T10:36:43.632Z,98.22
2017-12-04T10:37:43.614Z,98.50
2017-12-04T10:38:43.593Z,98.69
2017-12-04T10:39:43.573Z,97.74
2017-12-04T10:40:43.555Z,97.74
2017-12-04T10:41:43.544Z,97.64
2017-12-04T10:42:43.515Z,98.03
2017-12-04T10:43:43.512Z,97.17
2017-12-04T10:44:43.477Z,97.83
2017-12-04T10:45:43.465Z,97.83
2017-12-04T10:46:43.437Z,97.83
2017-12-04T10:47:43.421Z,97.93
2017-12-04T10:48:43.437Z,98.50
2017-12-04T10:49:43.382Z,98.50
2017-12-04T10:50:43.360Z,98.22
2017-12-04T10:51:43.342Z,98.41
2017-12-04T10:52:43.320Z,98.50
2017-12-04T10:53:43.307Z,98.22
2017-12-04T10:54:43.284Z,98.22
2017-12-04T10:55:43.265Z,97.55
2017-12-04T10:56:43.245Z,97.27
2017-12-04T10:57:43.224Z,97.74
2017-12-04T10:58:43.205Z,97.74
2017-12-04T10:59:43.187Z,97.08
2017-12-04T11:00:43.171Z,97.27
2017-12-04T11:01:43.155Z,97.64
2017-12-04T11:02:43.133Z,97.83
2017-12-04T11:03:43.111Z,98.12
2017-12-04T11:04:43.092Z,98.50
2017-12-04T11:05:43.073Z,98.22
2017-12-04T11:06:43.054Z,98.50
2017-12-04T11:07:43.035Z,97.36
2017-12-04T11:08:43.017Z,97.36
2017-12-04T11:09:42.995Z,97.27
2017-12-04T11:10:42.970Z,97.27
2017-12-04T11:11:42.953Z,97.36
2017-12-04T11:12:42.931Z,96.89
2017-12-04T11:13:42.913Z,96.60
2017-12-04T11:14:42.901Z,96.41
2017-12-04T11:15:42.873Z,96.22
2017-12-04T11:16:42.853Z,96.41
2017-12-04T11:17:42.834Z,96.31
2017-12-04T11:18:42.822Z,96.12
2017-12-04T11:19:42.797Z,95.84
2017-12-04T11:20:42.774Z,96.03
2017-12-04T11:21:42.760Z,96.50
2017-12-04T11:22:42.737Z,96.41
2017-12-04T11:23:42.767Z,96.03
2017-12-04T11:24:42.700Z,95.75
2017-12-04T11:25:42.681Z,95.70
2017-12-04T11:26:42.661Z,95.79
2017-12-04T11:27:42.646Z,96.31
2017-12-04T11:28:42.633Z,96.12
2017-12-04T11:29:42.621Z,96.17
2017-12-04T11:30:42.585Z,94.79
2017-12-04T11:31:42.563Z,94.51
2017-12-04T11:32:42.556Z,94.37
2017-12-04T11:33:42.525Z,94.65
2017-12-04T11:34:42.506Z,94.65
2017-12-04T11:35:42.489Z,94.37
2017-12-04T11:36:42.468Z,94.65
2017-12-04T11:37:42.452Z,93.70
2017-12-04T11:38:42.430Z,94.08
2017-12-04T11:39:42.417Z,94.08
2017-12-04T11:40:42.403Z,93.70
2017-12-04T11:41:42.374Z,93.51
2017-12-04T11:42:42.356Z,93.23
2017-12-04T11:43:42.344Z,93.32
2017-12-04T11:44:42.314Z,93.23
2017-12-04T11:45:42.307Z,93.23
2017-12-04T11:46:42.277Z,93.13
2017-12-04T11:47:42.265Z,93.04
2017-12-04T11:48:42.239Z,93.60
2017-12-04T11:49:42.227Z,93.89
2017-12-04T11:50:42.199Z,93.23
2017-12-04T11:51:42.184Z,93.32
2017-12-04T11:52:42.165Z,93.23
2017-12-04T11:53:42.143Z,92.65
2017-12-04T11:54:42.123Z,92.84
2017-12-04T11:55:42.107Z,93.51
2017-12-04T11:56:42.088Z,93.60
2017-12-04T11:57:42.070Z,93.32
2017-12-04T11:58:42.054Z,93.70
2017-12-04T11:59:42.032Z,93.89
2017-12-04T12:00:42.011Z,92.75
2017-12-04T12:01:41.994Z,93.51
2017-12-04T12:02:41.973Z,94.27
2017-12-04T12:03:42.165Z,93.70
2017-12-04T12:04:41.940Z,93.79
2017-12-04T12:05:41.915Z,93.51
2017-12-04T12:06:41.899Z,93.70
2017-12-04T12:07:41.882Z,93.79
2017-12-04T12:08:41.860Z,93.79
2017-12-04T12:09:41.844Z,93.79
2017-12-04T12:10:41.821Z,93.41
2017-12-04T12:11:41.804Z,94.27
2017-12-04T12:12:41.781Z,94.46
2017-12-04T12:13:41.768Z,94.18
2017-12-04T12:14:41.755Z,94.74
2017-12-04T12:15:41.726Z,94.18
2017-12-04T12:16:41.719Z,94.37
2017-12-04T12:17:41.694Z,94.46
2017-12-04T12:18:41.672Z,95.03
2017-12-04T12:19:41.665Z,94.93
2017-12-04T12:20:41.635Z,94.93
2017-12-04T12:21:41.614Z,94.37
2017-12-04T12:22:41.593Z,94.37
2017-12-04T12:23:41.573Z,94.84
2017-12-04T12:24:41.562Z,94.93
2017-12-04T12:25:41.536Z,94.37
2017-12-04T12:26:41.524Z,94.56
2017-12-04T12:27:41.505Z,94.56
2017-12-04T12:28:41.484Z,94.93
2017-12-04T12:29:41.461Z,94.84
2017-12-04T12:30:41.455Z,94.93
2017-12-04T12:31:41.426Z,94.93
2017-12-04T12:32:41.418Z,94.37
2017-12-04T12:33:41.393Z,94.27
2017-12-04T12:34:41.410Z,94.18
2017-12-04T12:35:41.348Z,93.46
2017-12-04T12:36:41.335Z,93.74
2017-12-04T12:37:41.371Z,93.37
2017-12-04T12:38:41.293Z,93.08
2017-12-04T12:39:41.275Z,92.99
2017-12-04T12:40:41.258Z,92.89
2017-12-04T12:41:41.240Z,92.51
2017-12-04T12:42:41.223Z,93.18
2017-12-04T12:43:41.205Z,92.99
2017-12-04T12:44:41.187Z,92.99
2017-12-04T12:45:41.161Z,92.89
2017-12-04T12:46:41.144Z,92.13
2017-12-04T12:47:41.128Z,92.41
2017-12-04T12:48:41.113Z,92.70
2017-12-04T12:49:41.094Z,92.32
2017-12-04T12:50:41.074Z,92.13
2017-12-04T12:51:41.057Z,91.41
2017-12-04T12:52:41.034Z,91.13